sensor_id;sensor_type;location;lat;lon;timestamp;P1;durP1;ratioP1;P2;durP2;ratioP2
69358;SDS011;56520;49.066;8.660;2023-04-16T00:01:57;7.38;;;2.70;;
69358;SDS011;56520;49.066;8.660;2023-04-16T00:04:23;7.28;;;2.67;;
69358;SDS011;56520;49.066;8.660;2023-04-16T00:06:48;7.93;;;2.83;;
69358;SDS011;56520;49.066;8.660;2023-04-16T00:09:13;7.82;;;2.53;;
69358;SDS011;56520;49.066;8.660;2023-04-16T00:11:39;7.03;;;2.85;;
69358;SDS011;56520;49.066;8.660;2023-04-16T00:14:04;7.13;;;2.53;;
69358;SDS011;56520;49.066;8.660;2023-04-16T00:16:30;6.55;;;2.75;;
69358;SDS011;56520;49.066;8.660;2023-04-16T00:18:55;7.65;;;3.05;;
69358;SDS011;56520;49.066;8.660;2023-04-16T00:21:21;7.55;;;2.83;;
69358;SDS011;56520;49.066;8.660;2023-04-16T00:23:46;6.35;;;2.42;;
69358;SDS011;56520;49.066;8.660;2023-04-16T00:26:11;8.38;;;2.67;;
69358;SDS011;56520;49.066;8.660;2023-04-16T00:28:37;7.43;;;2.80;;
69358;SDS011;56520;49.066;8.660;2023-04-16T00:31:02;7.45;;;2.80;;
69358;SDS011;56520;49.066;8.660;2023-04-16T00:33:27;7.60;;;3.13;;
69358;SDS011;56520;49.066;8.660;2023-04-16T00:35:54;8.00;;;2.95;;
69358;SDS011;56520;49.066;8.660;2023-04-16T00:38:19;8.85;;;3.05;;
69358;SDS011;56520;49.066;8.660;2023-04-16T00:40:45;7.82;;;2.72;;
69358;SDS011;56520;49.066;8.660;2023-04-16T00:43:10;7.35;;;2.80;;
69358;SDS011;56520;49.066;8.660;2023-04-16T00:45:36;7.60;;;3.38;;
69358;SDS011;56520;49.066;8.660;2023-04-16T00:48:01;8.07;;;3.15;;
69358;SDS011;56520;49.066;8.660;2023-04-16T00:50:27;7.45;;;2.90;;
69358;SDS011;56520;49.066;8.660;2023-04-16T00:52:53;7.97;;;3.72;;
69358;SDS011;56520;49.066;8.660;2023-04-16T00:55:20;9.55;;;3.63;;
69358;SDS011;56520;49.066;8.660;2023-04-16T00:57:46;8.95;;;3.50;;
69358;SDS011;56520;49.066;8.660;2023-04-16T01:00:11;8.20;;;3.33;;
69358;SDS011;56520;49.066;8.660;2023-04-16T01:02:37;8.55;;;3.78;;
69358;SDS011;56520;49.066;8.660;2023-04-16T01:05:03;8.93;;;4.13;;
69358;SDS011;56520;49.066;8.660;2023-04-16T01:07:29;9.45;;;4.18;;
69358;SDS011;56520;49.066;8.660;2023-04-16T01:09:55;10.23;;;4.25;;
69358;SDS011;56520;49.066;8.660;2023-04-16T01:12:21;9.07;;;3.72;;
69358;SDS011;56520;49.066;8.660;2023-04-16T01:14:47;8.82;;;3.72;;
69358;SDS011;56520;49.066;8.660;2023-04-16T01:17:12;10.95;;;3.88;;
69358;SDS011;56520;49.066;8.660;2023-04-16T01:19:38;8.48;;;3.65;;
69358;SDS011;56520;49.066;8.660;2023-04-16T01:22:03;9.40;;;3.88;;
69358;SDS011;56520;49.066;8.660;2023-04-16T01:24:30;10.60;;;4.03;;
69358;SDS011;56520;49.066;8.660;2023-04-16T01:26:58;8.23;;;3.65;;
69358;SDS011;56520;49.066;8.660;2023-04-16T01:29:24;8.85;;;3.85;;
69358;SDS011;56520;49.066;8.660;2023-04-16T01:31:50;8.52;;;4.22;;
69358;SDS011;56520;49.066;8.660;2023-04-16T01:34:16;8.95;;;3.63;;
69358;SDS011;56520;49.066;8.660;2023-04-16T01:36:41;10.02;;;4.25;;
69358;SDS011;56520;49.066;8.660;2023-04-16T01:39:07;10.10;;;4.10;;
69358;SDS011;56520;49.066;8.660;2023-04-16T01:41:35;10.93;;;4.05;;
69358;SDS011;56520;49.066;8.660;2023-04-16T01:44:01;8.00;;;3.45;;
69358;SDS011;56520;49.066;8.660;2023-04-16T01:46:27;9.55;;;3.97;;
69358;SDS011;56520;49.066;8.660;2023-04-16T01:48:54;10.60;;;3.95;;
69358;SDS011;56520;49.066;8.660;2023-04-16T01:51:19;8.52;;;3.47;;
69358;SDS011;56520;49.066;8.660;2023-04-16T01:53:45;9.65;;;4.20;;
69358;SDS011;56520;49.066;8.660;2023-04-16T01:56:11;9.07;;;3.80;;
69358;SDS011;56520;49.066;8.660;2023-04-16T01:58:36;10.98;;;4.07;;
69358;SDS011;56520;49.066;8.660;2023-04-16T02:01:02;10.60;;;4.25;;
69358;SDS011;56520;49.066;8.660;2023-04-16T02:03:29;11.00;;;4.38;;
69358;SDS011;56520;49.066;8.660;2023-04-16T02:05:55;10.23;;;4.25;;
69358;SDS011;56520;49.066;8.660;2023-04-16T02:08:20;11.35;;;4.22;;
69358;SDS011;56520;49.066;8.660;2023-04-16T02:10:46;11.68;;;4.82;;
69358;SDS011;56520;49.066;8.660;2023-04-16T02:13:13;8.48;;;3.97;;
69358;SDS011;56520;49.066;8.660;2023-04-16T02:15:43;10.32;;;4.00;;
69358;SDS011;56520;49.066;8.660;2023-04-16T02:18:09;12.18;;;4.50;;
69358;SDS011;56520;49.066;8.660;2023-04-16T02:20:38;12.50;;;4.15;;
69358;SDS011;56520;49.066;8.660;2023-04-16T02:23:04;12.18;;;3.97;;
69358;SDS011;56520;49.066;8.660;2023-04-16T02:25:30;10.90;;;4.50;;
69358;SDS011;56520;49.066;8.660;2023-04-16T02:27:55;10.38;;;4.43;;
69358;SDS011;56520;49.066;8.660;2023-04-16T02:30:20;9.75;;;3.92;;
69358;SDS011;56520;49.066;8.660;2023-04-16T02:32:46;10.90;;;4.13;;
69358;SDS011;56520;49.066;8.660;2023-04-16T02:35:11;9.60;;;4.28;;
69358;SDS011;56520;49.066;8.660;2023-04-16T02:37:36;10.57;;;4.35;;
69358;SDS011;56520;49.066;8.660;2023-04-16T02:40:04;10.50;;;4.25;;
69358;SDS011;56520;49.066;8.660;2023-04-16T02:42:30;12.90;;;4.72;;
69358;SDS011;56520;49.066;8.660;2023-04-16T02:44:56;10.95;;;4.38;;
69358;SDS011;56520;49.066;8.660;2023-04-16T02:47:21;10.50;;;4.22;;
69358;SDS011;56520;49.066;8.660;2023-04-16T02:49:46;11.05;;;4.60;;
69358;SDS011;56520;49.066;8.660;2023-04-16T02:52:12;11.80;;;4.43;;
69358;SDS011;56520;49.066;8.660;2023-04-16T02:54:37;10.45;;;4.28;;
69358;SDS011;56520;49.066;8.660;2023-04-16T02:57:02;10.20;;;3.97;;
69358;SDS011;56520;49.066;8.660;2023-04-16T02:59:28;10.18;;;4.18;;
69358;SDS011;56520;49.066;8.660;2023-04-16T03:01:53;11.02;;;4.78;;
69358;SDS011;56520;49.066;8.660;2023-04-16T03:04:18;9.73;;;4.20;;
69358;SDS011;56520;49.066;8.660;2023-04-16T03:06:44;10.05;;;4.63;;
69358;SDS011;56520;49.066;8.660;2023-04-16T03:09:09;11.65;;;3.97;;
69358;SDS011;56520;49.066;8.660;2023-04-16T03:11:35;9.50;;;4.10;;
69358;SDS011;56520;49.066;8.660;2023-04-16T03:14:00;11.00;;;4.25;;
69358;SDS011;56520;49.066;8.660;2023-04-16T03:16:25;11.95;;;4.22;;
69358;SDS011;56520;49.066;8.660;2023-04-16T03:18:51;11.02;;;4.28;;
69358;SDS011;56520;49.066;8.660;2023-04-16T03:21:16;10.63;;;4.60;;
69358;SDS011;56520;49.066;8.660;2023-04-16T03:23:42;9.43;;;3.92;;
69358;SDS011;56520;49.066;8.660;2023-04-16T03:26:07;10.48;;;4.28;;
69358;SDS011;56520;49.066;8.660;2023-04-16T03:28:32;10.68;;;4.03;;
69358;SDS011;56520;49.066;8.660;2023-04-16T03:30:58;12.10;;;4.63;;
69358;SDS011;56520;49.066;8.660;2023-04-16T03:33:23;9.98;;;4.10;;
69358;SDS011;56520;49.066;8.660;2023-04-16T03:35:55;9.45;;;3.72;;
69358;SDS011;56520;49.066;8.660;2023-04-16T03:38:21;13.25;;;4.95;;
69358;SDS011;56520;49.066;8.660;2023-04-16T03:40:47;10.63;;;3.97;;
69358;SDS011;56520;49.066;8.660;2023-04-16T03:43:13;9.70;;;4.18;;
69358;SDS011;56520;49.066;8.660;2023-04-16T03:45:42;10.25;;;4.45;;
69358;SDS011;56520;49.066;8.660;2023-04-16T03:48:11;9.40;;;4.07;;
69358;SDS011;56520;49.066;8.660;2023-04-16T03:50:36;12.18;;;4.28;;
69358;SDS011;56520;49.066;8.660;2023-04-16T03:53:01;9.43;;;4.13;;
69358;SDS011;56520;49.066;8.660;2023-04-16T03:55:27;10.63;;;5.00;;
69358;SDS011;56520;49.066;8.660;2023-04-16T03:57:55;10.50;;;4.47;;
69358;SDS011;56520;49.066;8.660;2023-04-16T04:00:21;11.18;;;3.92;;
69358;SDS011;56520;49.066;8.660;2023-04-16T04:02:46;12.48;;;4.28;;
69358;SDS011;56520;49.066;8.660;2023-04-16T04:05:12;10.52;;;4.43;;
69358;SDS011;56520;49.066;8.660;2023-04-16T04:07:37;9.60;;;4.38;;
69358;SDS011;56520;49.066;8.660;2023-04-16T04:10:03;11.15;;;4.28;;
69358;SDS011;56520;49.066;8.660;2023-04-16T04:12:28;9.85;;;4.57;;
69358;SDS011;56520;49.066;8.660;2023-04-16T04:14:53;11.82;;;4.50;;
69358;SDS011;56520;49.066;8.660;2023-04-16T04:17:19;10.98;;;3.78;;
69358;SDS011;56520;49.066;8.660;2023-04-16T04:19:45;12.68;;;4.55;;
69358;SDS011;56520;49.066;8.660;2023-04-16T04:22:10;10.98;;;4.32;;
69358;SDS011;56520;49.066;8.660;2023-04-16T04:24:36;10.45;;;4.32;;
69358;SDS011;56520;49.066;8.660;2023-04-16T04:27:01;12.10;;;5.03;;
69358;SDS011;56520;49.066;8.660;2023-04-16T04:29:26;12.27;;;4.35;;
69358;SDS011;56520;49.066;8.660;2023-04-16T04:31:52;12.27;;;5.82;;
69358;SDS011;56520;49.066;8.660;2023-04-16T04:34:19;12.95;;;5.03;;
69358;SDS011;56520;49.066;8.660;2023-04-16T04:36:44;10.13;;;4.50;;
69358;SDS011;56520;49.066;8.660;2023-04-16T04:39:10;10.27;;;4.35;;
69358;SDS011;56520;49.066;8.660;2023-04-16T04:41:35;12.00;;;4.47;;
69358;SDS011;56520;49.066;8.660;2023-04-16T04:44:00;11.95;;;4.90;;
69358;SDS011;56520;49.066;8.660;2023-04-16T04:46:26;9.50;;;4.18;;
69358;SDS011;56520;49.066;8.660;2023-04-16T04:48:51;11.55;;;4.50;;
69358;SDS011;56520;49.066;8.660;2023-04-16T04:51:16;11.10;;;4.47;;
69358;SDS011;56520;49.066;8.660;2023-04-16T04:53:42;9.95;;;4.38;;
69358;SDS011;56520;49.066;8.660;2023-04-16T04:56:07;10.02;;;4.28;;
69358;SDS011;56520;49.066;8.660;2023-04-16T04:58:35;9.90;;;4.30;;
69358;SDS011;56520;49.066;8.660;2023-04-16T05:01:01;12.13;;;4.80;;
69358;SDS011;56520;49.066;8.660;2023-04-16T05:03:26;9.85;;;4.40;;
69358;SDS011;56520;49.066;8.660;2023-04-16T05:05:51;11.52;;;4.43;;
69358;SDS011;56520;49.066;8.660;2023-04-16T05:08:17;12.77;;;4.93;;
69358;SDS011;56520;49.066;8.660;2023-04-16T05:10:42;10.00;;;4.10;;
69358;SDS011;56520;49.066;8.660;2023-04-16T05:13:07;11.20;;;4.28;;
69358;SDS011;56520;49.066;8.660;2023-04-16T05:15:33;12.35;;;4.53;;
69358;SDS011;56520;49.066;8.660;2023-04-16T05:17:58;10.65;;;4.35;;
69358;SDS011;56520;49.066;8.660;2023-04-16T05:20:24;12.23;;;4.68;;
69358;SDS011;56520;49.066;8.660;2023-04-16T05:22:49;11.57;;;4.93;;
69358;SDS011;56520;49.066;8.660;2023-04-16T05:25:15;9.90;;;4.63;;
69358;SDS011;56520;49.066;8.660;2023-04-16T05:27:41;11.18;;;4.38;;
69358;SDS011;56520;49.066;8.660;2023-04-16T05:30:07;12.82;;;4.72;;
69358;SDS011;56520;49.066;8.660;2023-04-16T05:32:32;9.55;;;3.85;;
69358;SDS011;56520;49.066;8.660;2023-04-16T05:34:58;9.35;;;4.28;;
69358;SDS011;56520;49.066;8.660;2023-04-16T05:37:23;9.98;;;4.68;;
69358;SDS011;56520;49.066;8.660;2023-04-16T05:39:49;9.60;;;3.75;;
69358;SDS011;56520;49.066;8.660;2023-04-16T05:42:14;10.57;;;4.25;;
69358;SDS011;56520;49.066;8.660;2023-04-16T05:44:40;9.90;;;3.88;;
69358;SDS011;56520;49.066;8.660;2023-04-16T05:47:05;9.80;;;3.85;;
69358;SDS011;56520;49.066;8.660;2023-04-16T05:49:33;9.50;;;3.97;;
69358;SDS011;56520;49.066;8.660;2023-04-16T05:51:59;11.07;;;4.00;;
69358;SDS011;56520;49.066;8.660;2023-04-16T05:54:24;10.38;;;4.50;;
69358;SDS011;56520;49.066;8.660;2023-04-16T05:56:50;9.88;;;4.00;;
69358;SDS011;56520;49.066;8.660;2023-04-16T05:59:15;10.27;;;4.13;;
69358;SDS011;56520;49.066;8.660;2023-04-16T06:01:40;9.65;;;3.85;;
69358;SDS011;56520;49.066;8.660;2023-04-16T06:04:06;8.98;;;4.03;;
69358;SDS011;56520;49.066;8.660;2023-04-16T06:06:31;9.63;;;3.40;;
69358;SDS011;56520;49.066;8.660;2023-04-16T06:08:57;8.27;;;2.97;;
69358;SDS011;56520;49.066;8.660;2023-04-16T06:11:22;9.43;;;3.08;;
69358;SDS011;56520;49.066;8.660;2023-04-16T06:13:51;8.32;;;3.38;;
69358;SDS011;56520;49.066;8.660;2023-04-16T06:16:16;12.18;;;4.15;;
69358;SDS011;56520;49.066;8.660;2023-04-16T06:18:42;9.38;;;3.47;;
69358;SDS011;56520;49.066;8.660;2023-04-16T06:21:07;9.52;;;4.05;;
69358;SDS011;56520;49.066;8.660;2023-04-16T06:23:33;9.32;;;4.15;;
69358;SDS011;56520;49.066;8.660;2023-04-16T06:25:58;9.10;;;3.45;;
69358;SDS011;56520;49.066;8.660;2023-04-16T06:28:23;8.43;;;3.35;;
69358;SDS011;56520;49.066;8.660;2023-04-16T06:30:49;10.80;;;4.25;;
69358;SDS011;56520;49.066;8.660;2023-04-16T06:33:14;9.07;;;3.58;;
69358;SDS011;56520;49.066;8.660;2023-04-16T06:35:40;9.98;;;3.65;;
69358;SDS011;56520;49.066;8.660;2023-04-16T06:38:05;9.02;;;3.40;;
69358;SDS011;56520;49.066;8.660;2023-04-16T06:40:31;7.10;;;3.05;;
69358;SDS011;56520;49.066;8.660;2023-04-16T06:42:56;8.88;;;3.20;;
69358;SDS011;56520;49.066;8.660;2023-04-16T06:45:22;9.27;;;3.53;;
69358;SDS011;56520;49.066;8.660;2023-04-16T06:47:47;9.23;;;3.30;;
69358;SDS011;56520;49.066;8.660;2023-04-16T06:50:13;10.05;;;3.75;;
69358;SDS011;56520;49.066;8.660;2023-04-16T06:52:39;8.82;;;3.95;;
69358;SDS011;56520;49.066;8.660;2023-04-16T06:55:04;8.32;;;3.25;;
69358;SDS011;56520;49.066;8.660;2023-04-16T06:57:32;9.93;;;3.70;;
69358;SDS011;56520;49.066;8.660;2023-04-16T06:59:57;7.00;;;2.95;;
69358;SDS011;56520;49.066;8.660;2023-04-16T07:02:23;9.13;;;3.60;;
69358;SDS011;56520;49.066;8.660;2023-04-16T07:04:48;7.97;;;3.50;;
69358;SDS011;56520;49.066;8.660;2023-04-16T07:07:14;10.98;;;4.22;;
69358;SDS011;56520;49.066;8.660;2023-04-16T07:09:39;10.40;;;4.00;;
69358;SDS011;56520;49.066;8.660;2023-04-16T07:12:04;9.32;;;3.55;;
69358;SDS011;56520;49.066;8.660;2023-04-16T07:14:31;9.27;;;3.85;;
69358;SDS011;56520;49.066;8.660;2023-04-16T07:16:56;7.97;;;3.33;;
69358;SDS011;56520;49.066;8.660;2023-04-16T07:19:22;9.73;;;3.53;;
69358;SDS011;56520;49.066;8.660;2023-04-16T07:21:47;8.13;;;3.03;;
69358;SDS011;56520;49.066;8.660;2023-04-16T07:24:13;8.60;;;3.35;;
69358;SDS011;56520;49.066;8.660;2023-04-16T07:26:38;8.75;;;3.40;;
69358;SDS011;56520;49.066;8.660;2023-04-16T07:29:04;6.72;;;2.67;;
69358;SDS011;56520;49.066;8.660;2023-04-16T07:31:29;8.35;;;3.08;;
69358;SDS011;56520;49.066;8.660;2023-04-16T07:33:55;9.63;;;3.70;;
69358;SDS011;56520;49.066;8.660;2023-04-16T07:36:21;8.02;;;3.00;;
69358;SDS011;56520;49.066;8.660;2023-04-16T07:38:50;10.48;;;3.50;;
69358;SDS011;56520;49.066;8.660;2023-04-16T07:41:17;8.27;;;2.92;;
69358;SDS011;56520;49.066;8.660;2023-04-16T07:43:43;8.93;;;3.20;;
69358;SDS011;56520;49.066;8.660;2023-04-16T07:46:08;8.10;;;2.90;;
69358;SDS011;56520;49.066;8.660;2023-04-16T07:48:33;8.82;;;3.42;;
69358;SDS011;56520;49.066;8.660;2023-04-16T07:50:59;8.68;;;3.28;;
69358;SDS011;56520;49.066;8.660;2023-04-16T07:53:24;7.20;;;2.67;;
69358;SDS011;56520;49.066;8.660;2023-04-16T07:55:50;8.05;;;3.15;;
69358;SDS011;56520;49.066;8.660;2023-04-16T07:58:15;8.57;;;3.20;;
69358;SDS011;56520;49.066;8.660;2023-04-16T08:00:41;10.20;;;3.33;;
69358;SDS011;56520;49.066;8.660;2023-04-16T08:03:07;11.23;;;3.60;;
69358;SDS011;56520;49.066;8.660;2023-04-16T08:05:33;9.07;;;3.60;;
69358;SDS011;56520;49.066;8.660;2023-04-16T08:07:58;8.85;;;3.38;;
69358;SDS011;56520;49.066;8.660;2023-04-16T08:10:23;7.55;;;2.95;;
69358;SDS011;56520;49.066;8.660;2023-04-16T08:12:49;8.85;;;3.03;;
69358;SDS011;56520;49.066;8.660;2023-04-16T08:15:14;9.10;;;3.03;;
69358;SDS011;56520;49.066;8.660;2023-04-16T08:17:39;8.93;;;3.22;;
69358;SDS011;56520;49.066;8.660;2023-04-16T08:20:05;10.20;;;3.60;;
69358;SDS011;56520;49.066;8.660;2023-04-16T08:22:31;9.65;;;2.92;;
69358;SDS011;56520;49.066;8.660;2023-04-16T08:24:57;9.65;;;3.30;;
69358;SDS011;56520;49.066;8.660;2023-04-16T08:27:22;9.38;;;4.13;;
69358;SDS011;56520;49.066;8.660;2023-04-16T08:29:48;9.75;;;4.10;;
69358;SDS011;56520;49.066;8.660;2023-04-16T08:32:13;12.23;;;3.83;;
69358;SDS011;56520;49.066;8.660;2023-04-16T08:34:39;10.38;;;4.10;;
69358;SDS011;56520;49.066;8.660;2023-04-16T08:37:05;11.40;;;4.30;;
69358;SDS011;56520;49.066;8.660;2023-04-16T08:39:31;10.07;;;3.83;;
69358;SDS011;56520;49.066;8.660;2023-04-16T08:41:57;10.23;;;4.20;;
69358;SDS011;56520;49.066;8.660;2023-04-16T08:44:26;10.40;;;4.03;;
69358;SDS011;56520;49.066;8.660;2023-04-16T08:46:55;9.52;;;3.42;;
69358;SDS011;56520;49.066;8.660;2023-04-16T08:49:22;11.73;;;4.47;;
69358;SDS011;56520;49.066;8.660;2023-04-16T08:51:50;9.32;;;3.53;;
69358;SDS011;56520;49.066;8.660;2023-04-16T08:54:38;10.18;;;3.72;;
69358;SDS011;56520;49.066;8.660;2023-04-16T08:57:02;10.70;;;3.80;;
69358;SDS011;56520;49.066;8.660;2023-04-16T08:59:30;10.73;;;3.55;;
69358;SDS011;56520;49.066;8.660;2023-04-16T09:01:59;7.65;;;3.40;;
69358;SDS011;56520;49.066;8.660;2023-04-16T09:04:25;10.18;;;3.53;;
69358;SDS011;56520;49.066;8.660;2023-04-16T09:06:53;13.30;;;4.70;;
69358;SDS011;56520;49.066;8.660;2023-04-16T09:09:20;8.32;;;3.47;;
69358;SDS011;56520;49.066;8.660;2023-04-16T09:11:48;8.93;;;3.35;;
69358;SDS011;56520;49.066;8.660;2023-04-16T09:14:15;10.70;;;3.78;;
69358;SDS011;56520;49.066;8.660;2023-04-16T09:16:41;9.88;;;3.55;;
69358;SDS011;56520;49.066;8.660;2023-04-16T09:19:08;10.20;;;3.60;;
69358;SDS011;56520;49.066;8.660;2023-04-16T09:21:33;9.95;;;3.47;;
69358;SDS011;56520;49.066;8.660;2023-04-16T09:24:00;10.68;;;4.13;;
69358;SDS011;56520;49.066;8.660;2023-04-16T09:26:26;9.60;;;3.92;;
69358;SDS011;56520;49.066;8.660;2023-04-16T09:28:51;9.30;;;2.92;;
69358;SDS011;56520;49.066;8.660;2023-04-16T09:31:17;8.85;;;3.35;;
69358;SDS011;56520;49.066;8.660;2023-04-16T09:33:59;11.32;;;3.63;;
69358;SDS011;56520;49.066;8.660;2023-04-16T09:36:27;11.43;;;3.65;;
69358;SDS011;56520;49.066;8.660;2023-04-16T09:38:53;10.75;;;3.78;;
69358;SDS011;56520;49.066;8.660;2023-04-16T09:41:23;7.68;;;3.00;;
69358;SDS011;56520;49.066;8.660;2023-04-16T09:46:36;8.95;;;3.58;;
69358;SDS011;56520;49.066;8.660;2023-04-16T09:49:15;8.48;;;3.22;;
69358;SDS011;56520;49.066;8.660;2023-04-16T09:51:42;10.18;;;3.58;;
69358;SDS011;56520;49.066;8.660;2023-04-16T09:54:10;9.60;;;3.42;;
69358;SDS011;56520;49.066;8.660;2023-04-16T09:56:40;10.88;;;3.83;;
69358;SDS011;56520;49.066;8.660;2023-04-16T09:59:18;8.55;;;3.25;;
69358;SDS011;56520;49.066;8.660;2023-04-16T10:01:44;7.57;;;3.13;;
69358;SDS011;56520;49.066;8.660;2023-04-16T10:04:11;11.15;;;3.10;;
69358;SDS011;56520;49.066;8.660;2023-04-16T10:06:36;7.93;;;3.42;;
69358;SDS011;56520;49.066;8.660;2023-04-16T10:09:02;9.93;;;3.97;;
69358;SDS011;56520;49.066;8.660;2023-04-16T10:11:31;8.48;;;3.63;;
69358;SDS011;56520;49.066;8.660;2023-04-16T10:13:57;7.38;;;3.25;;
69358;SDS011;56520;49.066;8.660;2023-04-16T10:16:22;8.70;;;3.42;;
69358;SDS011;56520;49.066;8.660;2023-04-16T10:18:48;8.10;;;3.40;;
69358;SDS011;56520;49.066;8.660;2023-04-16T10:21:14;8.40;;;2.88;;
69358;SDS011;56520;49.066;8.660;2023-04-16T10:23:41;8.98;;;2.97;;
69358;SDS011;56520;49.066;8.660;2023-04-16T10:26:07;7.70;;;3.35;;
69358;SDS011;56520;49.066;8.660;2023-04-16T10:28:33;7.65;;;2.85;;
69358;SDS011;56520;49.066;8.660;2023-04-16T10:31:00;6.85;;;2.47;;
69358;SDS011;56520;49.066;8.660;2023-04-16T10:33:34;7.13;;;2.95;;
69358;SDS011;56520;49.066;8.660;2023-04-16T10:36:10;9.40;;;3.45;;
69358;SDS011;56520;49.066;8.660;2023-04-16T10:38:40;6.93;;;2.63;;
69358;SDS011;56520;49.066;8.660;2023-04-16T10:41:10;8.60;;;2.85;;
69358;SDS011;56520;49.066;8.660;2023-04-16T10:43:39;8.30;;;3.28;;
69358;SDS011;56520;49.066;8.660;2023-04-16T10:47:07;8.20;;;2.90;;
69358;SDS011;56520;49.066;8.660;2023-04-16T10:49:24;7.50;;;3.38;;
69358;SDS011;56520;49.066;8.660;2023-04-16T10:51:54;7.40;;;2.92;;
69358;SDS011;56520;49.066;8.660;2023-04-16T10:56:53;10.85;;;3.05;;
69358;SDS011;56520;49.066;8.660;2023-04-16T10:59:21;8.80;;;3.15;;
69358;SDS011;56520;49.066;8.660;2023-04-16T11:01:53;9.35;;;3.25;;
69358;SDS011;56520;49.066;8.660;2023-04-16T11:12:14;9.73;;;3.60;;
69358;SDS011;56520;49.066;8.660;2023-04-16T11:14:43;10.20;;;3.05;;
69358;SDS011;56520;49.066;8.660;2023-04-16T11:17:13;9.10;;;3.17;;
69358;SDS011;56520;49.066;8.660;2023-04-16T11:19:38;7.97;;;3.00;;
69358;SDS011;56520;49.066;8.660;2023-04-16T11:22:06;8.43;;;3.30;;
69358;SDS011;56520;49.066;8.660;2023-04-16T11:24:32;7.65;;;2.80;;
69358;SDS011;56520;49.066;8.660;2023-04-16T11:26:58;8.18;;;3.28;;
69358;SDS011;56520;49.066;8.660;2023-04-16T11:29:23;9.65;;;3.33;;
69358;SDS011;56520;49.066;8.660;2023-04-16T11:31:53;8.25;;;3.50;;
69358;SDS011;56520;49.066;8.660;2023-04-16T11:34:19;7.90;;;3.20;;
69358;SDS011;56520;49.066;8.660;2023-04-16T11:36:45;9.60;;;3.60;;
69358;SDS011;56520;49.066;8.660;2023-04-16T11:39:12;9.95;;;3.42;;
69358;SDS011;56520;49.066;8.660;2023-04-16T11:44:22;10.27;;;3.13;;
69358;SDS011;56520;49.066;8.660;2023-04-16T11:46:49;8.52;;;3.42;;
69358;SDS011;56520;49.066;8.660;2023-04-16T11:49:16;8.07;;;3.08;;
69358;SDS011;56520;49.066;8.660;2023-04-16T11:51:51;8.68;;;3.35;;
69358;SDS011;56520;49.066;8.660;2023-04-16T11:54:20;8.52;;;3.50;;
69358;SDS011;56520;49.066;8.660;2023-04-16T11:56:47;9.35;;;3.55;;
69358;SDS011;56520;49.066;8.660;2023-04-16T11:59:17;7.50;;;3.17;;
69358;SDS011;56520;49.066;8.660;2023-04-16T12:01:47;8.13;;;2.97;;
69358;SDS011;56520;49.066;8.660;2023-04-16T12:04:15;10.40;;;3.60;;
69358;SDS011;56520;49.066;8.660;2023-04-16T12:09:33;7.68;;;3.42;;
69358;SDS011;56520;49.066;8.660;2023-04-16T12:11:59;8.30;;;3.35;;
69358;SDS011;56520;49.066;8.660;2023-04-16T12:14:25;8.68;;;3.10;;
69358;SDS011;56520;49.066;8.660;2023-04-16T12:16:51;9.18;;;3.60;;
69358;SDS011;56520;49.066;8.660;2023-04-16T12:19:16;8.35;;;3.20;;
69358;SDS011;56520;49.066;8.660;2023-04-16T12:21:43;8.60;;;3.33;;
69358;SDS011;56520;49.066;8.660;2023-04-16T12:24:10;8.55;;;3.30;;
69358;SDS011;56520;49.066;8.660;2023-04-16T12:26:41;8.68;;;3.33;;
69358;SDS011;56520;49.066;8.660;2023-04-16T12:29:14;8.13;;;3.08;;
69358;SDS011;56520;49.066;8.660;2023-04-16T12:31:40;9.55;;;3.15;;
69358;SDS011;56520;49.066;8.660;2023-04-16T12:34:05;9.20;;;3.63;;
69358;SDS011;56520;49.066;8.660;2023-04-16T12:36:31;9.15;;;3.58;;
69358;SDS011;56520;49.066;8.660;2023-04-16T12:38:57;9.05;;;3.50;;
69358;SDS011;56520;49.066;8.660;2023-04-16T12:41:22;8.98;;;4.05;;
69358;SDS011;56520;49.066;8.660;2023-04-16T12:43:47;7.88;;;3.22;;
69358;SDS011;56520;49.066;8.660;2023-04-16T12:46:13;9.93;;;3.35;;
69358;SDS011;56520;49.066;8.660;2023-04-16T12:48:38;7.60;;;3.00;;
69358;SDS011;56520;49.066;8.660;2023-04-16T12:51:04;8.82;;;3.28;;
69358;SDS011;56520;49.066;8.660;2023-04-16T12:53:30;10.38;;;4.10;;
69358;SDS011;56520;49.066;8.660;2023-04-16T12:55:55;9.18;;;3.47;;
69358;SDS011;56520;49.066;8.660;2023-04-16T12:58:20;9.38;;;3.60;;
69358;SDS011;56520;49.066;8.660;2023-04-16T13:00:46;11.63;;;3.72;;
69358;SDS011;56520;49.066;8.660;2023-04-16T13:03:11;9.02;;;3.45;;
69358;SDS011;56520;49.066;8.660;2023-04-16T13:05:37;10.18;;;4.07;;
69358;SDS011;56520;49.066;8.660;2023-04-16T13:08:02;9.20;;;3.72;;
69358;SDS011;56520;49.066;8.660;2023-04-16T13:10:27;8.48;;;3.60;;
69358;SDS011;56520;49.066;8.660;2023-04-16T13:12:53;10.70;;;4.15;;
69358;SDS011;56520;49.066;8.660;2023-04-16T13:15:18;9.77;;;3.53;;
69358;SDS011;56520;49.066;8.660;2023-04-16T13:17:44;9.23;;;3.88;;
69358;SDS011;56520;49.066;8.660;2023-04-16T13:20:10;10.45;;;3.83;;
69358;SDS011;56520;49.066;8.660;2023-04-16T13:22:35;9.23;;;3.67;;
69358;SDS011;56520;49.066;8.660;2023-04-16T13:25:00;10.25;;;3.55;;
69358;SDS011;56520;49.066;8.660;2023-04-16T13:27:26;8.82;;;3.63;;
69358;SDS011;56520;49.066;8.660;2023-04-16T13:29:51;9.55;;;3.70;;
69358;SDS011;56520;49.066;8.660;2023-04-16T13:32:17;8.82;;;4.00;;
69358;SDS011;56520;49.066;8.660;2023-04-16T13:34:43;9.75;;;3.85;;
69358;SDS011;56520;49.066;8.660;2023-04-16T13:37:08;10.77;;;4.78;;
69358;SDS011;56520;49.066;8.660;2023-04-16T13:39:34;10.88;;;4.22;;
69358;SDS011;56520;49.066;8.660;2023-04-16T13:41:59;13.25;;;4.60;;
69358;SDS011;56520;49.066;8.660;2023-04-16T13:44:25;10.98;;;4.70;;
69358;SDS011;56520;49.066;8.660;2023-04-16T13:46:50;12.63;;;4.60;;
69358;SDS011;56520;49.066;8.660;2023-04-16T13:49:16;9.63;;;3.85;;
69358;SDS011;56520;49.066;8.660;2023-04-16T13:51:42;10.73;;;4.20;;
69358;SDS011;56520;49.066;8.660;2023-04-16T13:54:08;12.52;;;4.57;;
69358;SDS011;56520;49.066;8.660;2023-04-16T13:56:34;9.43;;;4.10;;
69358;SDS011;56520;49.066;8.660;2023-04-16T13:58:59;10.60;;;4.18;;
69358;SDS011;56520;49.066;8.660;2023-04-16T14:01:25;10.57;;;4.20;;
69358;SDS011;56520;49.066;8.660;2023-04-16T14:03:50;11.13;;;4.50;;
69358;SDS011;56520;49.066;8.660;2023-04-16T14:06:15;11.18;;;4.78;;
69358;SDS011;56520;49.066;8.660;2023-04-16T14:08:42;11.52;;;3.95;;
69358;SDS011;56520;49.066;8.660;2023-04-16T14:11:07;10.70;;;3.97;;
69358;SDS011;56520;49.066;8.660;2023-04-16T14:13:33;8.82;;;3.58;;
69358;SDS011;56520;49.066;8.660;2023-04-16T14:15:58;10.13;;;4.22;;
69358;SDS011;56520;49.066;8.660;2023-04-16T14:18:24;13.27;;;4.97;;
69358;SDS011;56520;49.066;8.660;2023-04-16T14:20:49;16.70;;;4.28;;
69358;SDS011;56520;49.066;8.660;2023-04-16T14:23:15;10.60;;;3.97;;
69358;SDS011;56520;49.066;8.660;2023-04-16T14:25:40;11.15;;;3.97;;
69358;SDS011;56520;49.066;8.660;2023-04-16T14:28:06;11.85;;;4.38;;
69358;SDS011;56520;49.066;8.660;2023-04-16T14:30:32;10.18;;;4.18;;
69358;SDS011;56520;49.066;8.660;2023-04-16T14:32:58;11.30;;;4.45;;
69358;SDS011;56520;49.066;8.660;2023-04-16T14:35:23;10.82;;;4.40;;
69358;SDS011;56520;49.066;8.660;2023-04-16T14:37:49;10.48;;;4.18;;
69358;SDS011;56520;49.066;8.660;2023-04-16T14:40:14;10.02;;;3.88;;
69358;SDS011;56520;49.066;8.660;2023-04-16T14:42:40;11.50;;;4.65;;
69358;SDS011;56520;49.066;8.660;2023-04-16T14:45:05;10.50;;;4.40;;
69358;SDS011;56520;49.066;8.660;2023-04-16T14:47:32;14.35;;;5.18;;
69358;SDS011;56520;49.066;8.660;2023-04-16T14:49:58;13.45;;;4.40;;
69358;SDS011;56520;49.066;8.660;2023-04-16T14:52:24;11.25;;;4.50;;
69358;SDS011;56520;49.066;8.660;2023-04-16T14:54:50;12.45;;;4.53;;
69358;SDS011;56520;49.066;8.660;2023-04-16T14:57:16;10.43;;;4.32;;